createdAt,value
2023-01-26T00:01:20.995Z,24.90
2023-01-26T00:03:48.240Z,24.20
2023-01-26T00:06:16.741Z,31.42
2023-01-26T00:08:44.708Z,35.83
2023-01-26T00:11:13.106Z,26.23
2023-01-26T00:13:40.318Z,36.20
2023-01-26T00:16:16.282Z,27.52
2023-01-26T00:18:43.942Z,29.52
2023-01-26T00:21:15.357Z,34.00
2023-01-26T00:23:42.700Z,39.03
2023-01-26T00:26:10.784Z,37.13
2023-01-26T00:28:37.944Z,35.28
2023-01-26T00:31:05.516Z,33.80
2023-01-26T00:33:32.899Z,40.38
2023-01-26T00:35:59.936Z,33.67
2023-01-26T00:38:26.973Z,33.30
2023-01-26T00:40:54.176Z,42.30
2023-01-26T00:43:21.268Z,41.63
2023-01-26T00:45:48.347Z,35.33
2023-01-26T00:48:15.407Z,39.42
2023-01-26T00:50:42.435Z,36.90
2023-01-26T00:53:09.830Z,36.50
2023-01-26T00:55:37.146Z,35.60
2023-01-26T00:58:08.036Z,42.20
2023-01-26T01:00:35.733Z,36.58
2023-01-26T01:03:03.095Z,32.33
2023-01-26T01:05:31.279Z,42.28
2023-01-26T01:07:58.756Z,41.95
2023-01-26T01:10:27.488Z,47.78
2023-01-26T01:12:54.621Z,44.80
2023-01-26T01:15:21.659Z,37.17
2023-01-26T01:17:48.709Z,33.35
2023-01-26T01:20:15.998Z,34.60
2023-01-26T01:22:43.074Z,42.03
2023-01-26T01:25:10.362Z,37.47
2023-01-26T01:27:39.414Z,33.00
2023-01-26T01:30:08.136Z,29.17
2023-01-26T01:32:41.862Z,35.65
2023-01-26T01:35:09.095Z,31.05
2023-01-26T01:37:36.734Z,34.05
2023-01-26T01:40:04.137Z,31.52
2023-01-26T01:42:31.171Z,39.30
2023-01-26T01:45:16.892Z,40.38
2023-01-26T01:47:43.894Z,37.42
2023-01-26T01:50:15.899Z,39.53
2023-01-26T01:52:43.164Z,44.63
2023-01-26T01:55:11.251Z,44.00
2023-01-26T01:57:46.990Z,41.35
2023-01-26T02:00:19.267Z,37.38
2023-01-26T02:03:07.064Z,38.53
2023-01-26T02:05:36.199Z,63.33
2023-01-26T02:08:04.269Z,41.88
2023-01-26T02:10:41.727Z,38.90
2023-01-26T02:13:09.167Z,39.17
2023-01-26T02:15:36.677Z,44.90
2023-01-26T02:18:05.760Z,46.53
2023-01-26T02:20:44.704Z,39.17
2023-01-26T02:23:17.630Z,40.28
2023-01-26T02:25:53.524Z,41.35
2023-01-26T02:28:22.638Z,38.38
2023-01-26T02:30:49.780Z,43.17
2023-01-26T02:33:31.242Z,39.25
2023-01-26T02:35:58.505Z,37.00
2023-01-26T02:38:28.461Z,38.10
2023-01-26T02:40:57.008Z,41.20
2023-01-26T02:43:25.655Z,35.80
2023-01-26T02:45:52.864Z,41.00
2023-01-26T02:48:39.929Z,33.58
2023-01-26T02:51:07.480Z,34.05
2023-01-26T02:53:34.474Z,28.95
2023-01-26T02:56:01.608Z,30.17
2023-01-26T02:58:28.705Z,34.03
2023-01-26T03:00:55.752Z,32.90
2023-01-26T03:03:41.365Z,30.55
2023-01-26T03:06:12.603Z,30.95
2023-01-26T03:08:39.906Z,28.08
2023-01-26T03:11:07.613Z,29.38
2023-01-26T03:13:34.764Z,30.00
2023-01-26T03:16:07.057Z,33.45
2023-01-26T03:18:53.878Z,28.83
2023-01-26T03:21:39.807Z,28.50
2023-01-26T03:24:25.795Z,29.95
2023-01-26T03:27:11.526Z,25.67
2023-01-26T03:29:38.537Z,31.20
2023-01-26T03:32:05.696Z,31.27
2023-01-26T03:34:32.898Z,32.33
2023-01-26T03:37:00.259Z,29.20
2023-01-26T03:39:46.035Z,35.58
2023-01-26T03:42:31.847Z,31.67
2023-01-26T03:45:17.720Z,30.33
2023-01-26T03:48:03.741Z,30.95
2023-01-26T03:50:49.812Z,36.83
2023-01-26T03:53:36.640Z,30.50
2023-01-26T03:56:32.178Z,31.00
2023-01-26T03:59:09.393Z,41.58
2023-01-26T04:01:37.669Z,31.33
2023-01-26T04:04:24.081Z,33.97
2023-01-26T04:07:09.933Z,34.38
2023-01-26T04:09:39.383Z,31.23
2023-01-26T04:12:06.912Z,28.65
2023-01-26T04:14:52.580Z,39.05
2023-01-26T04:17:38.423Z,34.65
2023-01-26T04:20:25.395Z,34.75
2023-01-26T04:22:52.852Z,37.88
2023-01-26T04:25:20.786Z,32.40
2023-01-26T04:27:47.885Z,28.90
2023-01-26T04:30:15.824Z,36.50
2023-01-26T04:32:42.933Z,27.10
2023-01-26T04:35:10.533Z,36.92
2023-01-26T04:37:37.980Z,34.80
2023-01-26T04:40:05.451Z,34.05
2023-01-26T04:42:32.501Z,34.67
2023-01-26T04:44:59.567Z,33.17
2023-01-26T04:47:29.135Z,35.53
2023-01-26T04:49:56.417Z,37.75
2023-01-26T04:52:23.770Z,33.03
2023-01-26T04:54:50.788Z,37.78
2023-01-26T04:57:20.480Z,31.75
2023-01-26T04:59:47.602Z,36.35
2023-01-26T05:02:14.713Z,37.92
2023-01-26T05:04:41.716Z,42.30
2023-01-26T05:07:08.780Z,37.45
2023-01-26T05:09:35.913Z,46.50
2023-01-26T05:12:22.973Z,39.05
2023-01-26T05:14:49.990Z,32.15
2023-01-26T05:17:17.024Z,41.83
2023-01-26T05:19:44.017Z,44.28
2023-01-26T05:22:12.580Z,40.38
2023-01-26T05:24:39.808Z,35.70
2023-01-26T05:27:21.940Z,43.17
2023-01-26T05:29:53.257Z,40.35
2023-01-26T05:32:20.348Z,37.17
2023-01-26T05:34:47.366Z,40.40
2023-01-26T05:37:15.215Z,46.97
2023-01-26T05:39:42.470Z,35.60
2023-01-26T05:42:09.584Z,40.05
2023-01-26T05:44:36.679Z,37.40
2023-01-26T05:47:03.763Z,40.25
2023-01-26T05:49:31.007Z,35.78
2023-01-26T05:51:58.302Z,38.97
2023-01-26T05:54:25.341Z,44.13
2023-01-26T05:56:57.384Z,41.58
2023-01-26T05:59:30.506Z,39.90
2023-01-26T06:01:57.768Z,40.78
2023-01-26T06:04:25.175Z,42.42
2023-01-26T06:06:56.101Z,48.58
2023-01-26T06:09:25.184Z,46.58
2023-01-26T06:11:53.488Z,55.38
2023-01-26T06:14:20.525Z,48.20
2023-01-26T06:16:47.577Z,46.97
2023-01-26T06:19:14.687Z,43.83
2023-01-26T06:21:41.728Z,45.83
2023-01-26T06:24:08.942Z,37.30
2023-01-26T06:26:35.964Z,45.15
2023-01-26T06:29:03.255Z,45.35
2023-01-26T06:31:30.461Z,43.25
2023-01-26T06:33:57.554Z,47.83
2023-01-26T06:36:24.717Z,40.58
2023-01-26T06:38:56.573Z,34.97
2023-01-26T06:41:24.259Z,31.73
2023-01-26T06:43:51.278Z,40.88
2023-01-26T06:46:19.422Z,33.08
2023-01-26T06:48:46.787Z,35.90
2023-01-26T06:51:16.892Z,34.17
2023-01-26T06:53:44.803Z,29.55
2023-01-26T06:56:11.840Z,32.42
2023-01-26T06:58:38.949Z,31.33
2023-01-26T07:01:06.353Z,30.00
2023-01-26T07:03:33.418Z,33.08
2023-01-26T07:06:00.458Z,28.67
2023-01-26T07:08:27.568Z,30.23
2023-01-26T07:10:54.614Z,35.42
2023-01-26T07:13:21.632Z,30.95
2023-01-26T07:15:48.672Z,27.60
2023-01-26T07:18:15.704Z,28.20
2023-01-26T07:20:42.849Z,30.70
2023-01-26T07:23:11.145Z,30.85
2023-01-26T07:25:38.155Z,30.85
2023-01-26T07:28:05.241Z,25.20
2023-01-26T07:30:32.269Z,35.28
2023-01-26T07:33:00.774Z,31.33
2023-01-26T07:35:29.658Z,31.35
2023-01-26T07:37:58.582Z,27.58
2023-01-26T07:40:25.724Z,28.60
2023-01-26T07:42:52.745Z,28.05
2023-01-26T07:45:19.780Z,31.83
2023-01-26T07:47:48.055Z,38.17
2023-01-26T07:50:15.298Z,33.40
2023-01-26T07:52:43.599Z,32.90
2023-01-26T07:55:11.399Z,29.85
2023-01-26T07:57:38.421Z,25.38
2023-01-26T08:00:05.774Z,33.75
2023-01-26T08:02:32.813Z,32.85
2023-01-26T08:05:03.042Z,31.23
2023-01-26T08:07:30.047Z,33.70
2023-01-26T08:09:58.960Z,29.40
2023-01-26T08:12:26.287Z,38.13
2023-01-26T08:14:53.310Z,39.72
2023-01-26T08:17:20.397Z,36.45
2023-01-26T08:19:47.580Z,33.33
2023-01-26T08:22:14.668Z,30.58
2023-01-26T08:24:41.712Z,33.38
2023-01-26T08:27:08.741Z,30.25
2023-01-26T08:29:36.427Z,31.13
2023-01-26T08:32:03.967Z,33.63
2023-01-26T08:34:31.198Z,34.58
2023-01-26T08:36:58.586Z,32.78
2023-01-26T08:39:25.746Z,31.30
2023-01-26T08:41:52.756Z,29.05
2023-01-26T08:44:19.971Z,35.65
2023-01-26T08:46:47.084Z,31.17
2023-01-26T08:49:14.252Z,29.85
2023-01-26T08:51:42.486Z,33.25
2023-01-26T08:54:09.623Z,32.45
2023-01-26T08:56:36.864Z,30.77
2023-01-26T08:59:03.887Z,35.83
2023-01-26T09:01:30.977Z,32.58
2023-01-26T09:03:58.310Z,35.15
2023-01-26T09:06:25.477Z,36.13
2023-01-26T09:08:52.510Z,38.65
2023-01-26T09:11:19.516Z,35.10
2023-01-26T09:13:56.191Z,40.80
2023-01-26T09:16:23.811Z,40.22
2023-01-26T09:18:51.580Z,41.80
2023-01-26T09:21:18.702Z,35.47
2023-01-26T09:23:45.711Z,36.20
2023-01-26T09:26:12.941Z,37.60
2023-01-26T09:28:39.974Z,36.65
2023-01-26T09:31:08.372Z,36.85
2023-01-26T09:33:35.440Z,37.25
2023-01-26T09:36:06.425Z,36.03
2023-01-26T09:38:33.540Z,36.00
2023-01-26T09:41:20.941Z,29.27
2023-01-26T09:43:56.005Z,31.85
2023-01-26T09:46:29.944Z,30.58
2023-01-26T09:49:07.453Z,32.63
2023-01-26T09:51:39.324Z,33.13
2023-01-26T09:54:24.667Z,27.92
2023-01-26T09:56:51.773Z,30.20
2023-01-26T09:59:37.353Z,29.55
2023-01-26T10:02:23.207Z,29.13
2023-01-26T10:04:52.540Z,32.72
2023-01-26T10:07:19.563Z,35.97
2023-01-26T10:09:48.177Z,31.35
2023-01-26T10:12:29.279Z,36.08
2023-01-26T10:14:59.291Z,32.58
2023-01-26T10:17:31.218Z,34.45
2023-01-26T10:20:06.017Z,37.80
2023-01-26T10:22:39.148Z,30.10
2023-01-26T10:25:14.091Z,32.92
2023-01-26T10:27:41.192Z,29.17
2023-01-26T10:30:13.082Z,34.72
2023-01-26T10:32:42.590Z,33.67
2023-01-26T10:35:20.497Z,33.75
2023-01-26T10:37:48.078Z,37.58
2023-01-26T10:40:15.177Z,34.08
2023-01-26T10:42:42.356Z,37.78
2023-01-26T10:45:26.341Z,36.97
2023-01-26T10:48:08.568Z,34.28
2023-01-26T10:50:35.725Z,38.42
2023-01-26T10:53:05.285Z,38.85
2023-01-26T10:55:33.196Z,38.53
2023-01-26T10:58:00.730Z,36.38
2023-01-26T11:00:33.171Z,47.22
2023-01-26T11:03:06.441Z,39.17
2023-01-26T11:05:33.900Z,31.65
2023-01-26T11:08:03.006Z,38.03
2023-01-26T11:10:33.219Z,39.42
2023-01-26T11:13:08.350Z,37.60
2023-01-26T11:15:40.422Z,36.60
2023-01-26T11:18:26.244Z,37.15
2023-01-26T11:21:01.461Z,36.63
2023-01-26T11:23:40.036Z,36.35
2023-01-26T11:26:39.490Z,36.38
2023-01-26T11:29:18.777Z,32.25
2023-01-26T11:31:59.811Z,32.67
2023-01-26T11:34:45.435Z,45.08
2023-01-26T11:37:12.436Z,34.78
2023-01-26T11:39:58.831Z,37.08
2023-01-26T11:42:28.874Z,40.08
2023-01-26T11:45:09.507Z,36.33
2023-01-26T11:47:48.982Z,31.70
2023-01-26T11:50:35.312Z,40.65
2023-01-26T11:53:02.317Z,41.75
2023-01-26T11:55:52.361Z,44.63
2023-01-26T11:58:25.614Z,44.42
2023-01-26T12:00:52.610Z,41.38
2023-01-26T12:03:25.980Z,36.97
2023-01-26T12:05:54.888Z,41.53
2023-01-26T12:08:21.861Z,39.22
2023-01-26T12:10:58.795Z,38.38
2023-01-26T12:13:36.035Z,41.13
2023-01-26T12:16:07.965Z,32.55
2023-01-26T12:18:50.635Z,43.05
2023-01-26T12:21:21.047Z,42.58
2023-01-26T12:24:02.650Z,40.08
2023-01-26T12:26:32.858Z,43.00
2023-01-26T12:28:59.874Z,43.75
2023-01-26T12:31:32.778Z,45.63
2023-01-26T12:33:59.875Z,44.13
2023-01-26T12:36:32.714Z,39.72
2023-01-26T12:39:32.225Z,40.35
2023-01-26T12:42:17.531Z,50.90
2023-01-26T12:44:52.207Z,49.92
2023-01-26T12:47:23.575Z,45.78
2023-01-26T12:49:57.597Z,56.10
2023-01-26T12:52:43.599Z,54.20
2023-01-26T12:55:15.972Z,49.10
2023-01-26T12:57:56.641Z,45.28
2023-01-26T13:00:27.329Z,42.30
2023-01-26T13:02:57.486Z,47.58
2023-01-26T13:05:25.693Z,50.22
2023-01-26T13:07:52.877Z,49.83
2023-01-26T13:10:21.597Z,52.90
2023-01-26T13:12:59.648Z,64.95
2023-01-26T13:15:31.089Z,57.10
2023-01-26T13:18:00.126Z,62.13
2023-01-26T13:20:29.214Z,64.82
2023-01-26T13:22:56.791Z,57.47
2023-01-26T13:25:31.525Z,59.38
2023-01-26T13:28:00.027Z,65.38
2023-01-26T13:30:27.163Z,55.85
2023-01-26T13:32:54.273Z,64.25
2023-01-26T13:35:22.859Z,61.72
2023-01-26T13:37:52.996Z,59.65
2023-01-26T13:40:34.831Z,66.43
2023-01-26T13:43:26.274Z,52.95
2023-01-26T13:45:57.145Z,59.33
2023-01-26T13:48:44.468Z,55.88
2023-01-26T13:51:16.948Z,66.18
2023-01-26T13:54:01.561Z,51.05
2023-01-26T13:56:39.256Z,54.92
2023-01-26T13:59:12.749Z,58.58
2023-01-26T14:01:43.958Z,60.10
2023-01-26T14:04:14.263Z,54.50
2023-01-26T14:06:42.555Z,55.22
2023-01-26T14:09:12.163Z,61.83
2023-01-26T14:11:39.372Z,63.22
2023-01-26T14:14:07.241Z,62.58
2023-01-26T14:16:37.941Z,58.92
2023-01-26T14:19:18.183Z,60.15
2023-01-26T14:21:46.431Z,56.20
2023-01-26T14:24:13.636Z,61.63
2023-01-26T14:26:41.026Z,63.47
2023-01-26T14:29:13.171Z,60.15
2023-01-26T14:31:40.544Z,53.55
2023-01-26T14:34:09.903Z,54.22
2023-01-26T14:36:39.735Z,56.72
2023-01-26T14:39:17.355Z,52.92
2023-01-26T14:41:44.577Z,40.53
2023-01-26T14:44:11.862Z,44.95
2023-01-26T14:47:01.065Z,48.00
2023-01-26T14:49:42.834Z,42.20
2023-01-26T14:52:38.642Z,34.08
2023-01-26T14:55:13.876Z,33.83
2023-01-26T14:57:41.231Z,32.97
2023-01-26T15:00:10.265Z,31.50
2023-01-26T15:02:39.162Z,35.50
2023-01-26T15:05:13.949Z,36.53
2023-01-26T15:07:48.178Z,33.78
2023-01-26T15:10:27.271Z,30.50
2023-01-26T15:12:58.799Z,30.25
2023-01-26T15:15:30.776Z,29.38
2023-01-26T15:18:04.959Z,26.13
2023-01-26T15:20:33.147Z,22.80
2023-01-26T15:23:00.192Z,21.85
2023-01-26T15:25:28.832Z,28.17
2023-01-26T15:27:58.813Z,23.27
2023-01-26T15:30:28.160Z,23.50
2023-01-26T15:32:55.267Z,24.83
2023-01-26T15:35:26.780Z,23.08
2023-01-26T15:38:04.378Z,27.48
2023-01-26T15:40:31.872Z,30.88
2023-01-26T15:43:18.470Z,27.33
2023-01-26T15:45:55.819Z,29.33
2023-01-26T15:48:24.176Z,25.70
2023-01-26T15:50:51.325Z,23.42
2023-01-26T15:53:22.077Z,25.67
2023-01-26T15:55:52.671Z,21.95
2023-01-26T15:58:19.965Z,26.55
2023-01-26T16:00:47.343Z,23.95
2023-01-26T16:03:16.524Z,25.10
2023-01-26T16:05:44.182Z,23.63
2023-01-26T16:08:11.203Z,25.92
2023-01-26T16:10:38.771Z,24.15
2023-01-26T16:13:09.943Z,26.42
2023-01-26T16:15:42.330Z,29.75
2023-01-26T16:18:09.716Z,26.90
2023-01-26T16:20:37.457Z,26.08
2023-01-26T16:23:04.685Z,32.47
2023-01-26T16:25:32.505Z,29.83
2023-01-26T16:27:59.995Z,28.38
2023-01-26T16:30:27.197Z,27.35
2023-01-26T16:32:54.281Z,25.08
2023-01-26T16:35:22.369Z,33.40
2023-01-26T16:37:49.463Z,33.58
2023-01-26T16:40:17.650Z,26.58
2023-01-26T16:42:47.036Z,28.83
2023-01-26T16:45:24.460Z,25.23
2023-01-26T16:47:57.230Z,31.38
2023-01-26T16:50:25.182Z,28.52
2023-01-26T16:52:52.884Z,32.58
2023-01-26T16:55:20.087Z,22.90
2023-01-26T16:57:49.857Z,27.00
2023-01-26T17:00:18.236Z,23.92
2023-01-26T17:02:48.299Z,22.52
2023-01-26T17:05:16.689Z,23.05
2023-01-26T17:07:44.026Z,23.52
2023-01-26T17:10:11.985Z,20.52
2023-01-26T17:12:39.157Z,25.65
2023-01-26T17:15:07.131Z,25.40
2023-01-26T17:17:34.545Z,25.52
2023-01-26T17:20:17.659Z,24.00
2023-01-26T17:22:45.750Z,25.25
2023-01-26T17:25:16.001Z,25.95
2023-01-26T17:27:44.500Z,30.73
2023-01-26T17:30:11.632Z,32.13
2023-01-26T17:32:38.686Z,32.47
2023-01-26T17:35:05.899Z,33.15
2023-01-26T17:37:32.966Z,30.92
2023-01-26T17:40:00.109Z,29.55
2023-01-26T17:42:28.691Z,30.00
2023-01-26T17:44:57.714Z,28.08
2023-01-26T17:47:24.769Z,26.83
2023-01-26T17:49:51.899Z,25.25
2023-01-26T17:52:18.983Z,32.13
2023-01-26T17:54:46.208Z,29.27
2023-01-26T17:57:15.045Z,29.23
2023-01-26T17:59:42.065Z,28.95
2023-01-26T18:02:10.596Z,28.38
2023-01-26T18:04:37.667Z,30.65
2023-01-26T18:07:04.877Z,36.33
2023-01-26T18:09:31.908Z,34.60
2023-01-26T18:11:58.932Z,28.95
2023-01-26T18:14:25.957Z,30.75
2023-01-26T18:16:53.027Z,24.67
2023-01-26T18:19:20.111Z,28.25
2023-01-26T18:21:49.042Z,26.02
2023-01-26T18:24:17.933Z,27.40
2023-01-26T18:26:45.178Z,26.38
2023-01-26T18:29:12.474Z,28.52
2023-01-26T18:31:40.843Z,31.77
2023-01-26T18:34:07.918Z,29.25
2023-01-26T18:36:35.299Z,26.45
2023-01-26T18:39:03.584Z,26.33
2023-01-26T18:41:31.056Z,25.23
2023-01-26T18:43:58.467Z,23.15
2023-01-26T18:46:26.016Z,23.23
2023-01-26T18:48:54.083Z,25.35
2023-01-26T18:51:22.604Z,22.80
2023-01-26T18:53:49.931Z,22.80
2023-01-26T18:56:17.468Z,22.67
2023-01-26T18:58:44.724Z,26.27
2023-01-26T19:01:12.968Z,21.13
2023-01-26T19:03:55.138Z,22.60
2023-01-26T19:06:23.003Z,25.67
2023-01-26T19:08:59.283Z,25.40
2023-01-26T19:11:27.735Z,20.65
2023-01-26T19:13:55.387Z,26.80
2023-01-26T19:16:23.913Z,24.27
2023-01-26T19:18:51.798Z,28.17
2023-01-26T19:21:21.586Z,25.20
2023-01-26T19:23:49.438Z,24.83
2023-01-26T19:26:18.075Z,23.85
2023-01-26T19:28:45.251Z,22.38
2023-01-26T19:31:12.878Z,20.95
2023-01-26T19:33:40.456Z,21.42
2023-01-26T19:36:07.951Z,22.45
2023-01-26T19:38:36.182Z,29.70
2023-01-26T19:41:03.354Z,22.77
2023-01-26T19:43:30.380Z,24.63
2023-01-26T19:45:57.544Z,20.70
2023-01-26T19:48:25.903Z,23.58
2023-01-26T19:51:00.673Z,19.65
2023-01-26T19:53:27.995Z,24.52
2023-01-26T19:55:55.168Z,22.25
2023-01-26T19:58:22.221Z,21.98
2023-01-26T20:00:49.339Z,18.23
2023-01-26T20:03:16.369Z,18.50
2023-01-26T20:05:43.520Z,19.25
2023-01-26T20:08:10.595Z,17.70
2023-01-26T20:10:37.626Z,17.20
2023-01-26T20:13:04.662Z,23.65
2023-01-26T20:15:35.412Z,19.95
2023-01-26T20:18:03.426Z,18.42
2023-01-26T20:20:31.012Z,19.30
2023-01-26T20:23:04.142Z,19.70
2023-01-26T20:25:31.229Z,19.60
2023-01-26T20:27:58.261Z,20.52
2023-01-26T20:30:25.575Z,21.15
2023-01-26T20:32:53.841Z,18.85
2023-01-26T20:35:21.544Z,19.52
2023-01-26T20:37:48.274Z,17.38
2023-01-26T20:40:15.232Z,19.20
2023-01-26T20:42:41.976Z,17.25
2023-01-26T20:45:09.592Z,17.92
2023-01-26T20:47:39.098Z,18.80
2023-01-26T20:50:06.459Z,21.80
2023-01-26T20:52:33.368Z,20.80
2023-01-26T20:55:01.967Z,17.63
2023-01-26T20:57:29.255Z,25.77
2023-01-26T20:59:55.943Z,18.45
2023-01-26T21:02:22.618Z,24.75
2023-01-26T21:04:49.915Z,21.10
2023-01-26T21:07:16.696Z,24.33
2023-01-26T21:09:43.346Z,21.45
2023-01-26T21:12:09.955Z,18.48
2023-01-26T21:14:36.599Z,19.25
2023-01-26T21:17:03.592Z,19.23
2023-01-26T21:19:31.247Z,22.23
2023-01-26T21:21:59.309Z,18.13
2023-01-26T21:24:26.253Z,16.80
2023-01-26T21:26:52.863Z,19.35
2023-01-26T21:29:19.479Z,15.55
2023-01-26T21:31:46.100Z,17.73
2023-01-26T21:34:12.853Z,24.38
2023-01-26T21:36:39.503Z,19.20
2023-01-26T21:39:10.640Z,16.70
2023-01-26T21:41:55.732Z,21.98
2023-01-26T21:44:32.597Z,18.27
2023-01-26T21:47:06.608Z,18.05
2023-01-26T21:49:33.195Z,20.02
2023-01-26T21:52:18.226Z,16.60
2023-01-26T21:54:44.897Z,20.30
2023-01-26T21:57:30.300Z,18.60
2023-01-26T21:59:56.968Z,21.02
2023-01-26T22:02:26.407Z,22.95
2023-01-26T22:04:53.061Z,17.88
2023-01-26T22:07:19.865Z,19.80
2023-01-26T22:09:46.595Z,19.38
2023-01-26T22:12:13.217Z,23.13
2023-01-26T22:14:39.901Z,22.08
2023-01-26T22:17:06.641Z,22.35
2023-01-26T22:19:33.278Z,21.83
2023-01-26T22:21:59.882Z,23.33
2023-01-26T22:24:26.941Z,21.55
2023-01-26T22:26:53.975Z,23.40
2023-01-26T22:29:21.098Z,20.63
2023-01-26T22:31:47.825Z,19.88
2023-01-26T22:34:14.455Z,19.40
2023-01-26T22:36:41.290Z,23.83
2023-01-26T22:39:08.629Z,20.85
2023-01-26T22:41:35.912Z,20.65
2023-01-26T22:44:02.703Z,23.55
2023-01-26T22:46:31.009Z,31.00
2023-01-26T22:48:58.667Z,29.33
2023-01-26T22:51:30.597Z,24.73
2023-01-26T22:53:58.772Z,19.08
2023-01-26T22:56:26.521Z,43.22
2023-01-26T22:58:58.931Z,28.05
2023-01-26T23:01:28.308Z,21.52
2023-01-26T23:03:57.080Z,20.60
2023-01-26T23:06:25.560Z,24.25
2023-01-26T23:08:52.656Z,26.17
2023-01-26T23:11:21.107Z,21.58
2023-01-26T23:13:48.903Z,21.88
2023-01-26T23:16:16.297Z,28.35
2023-01-26T23:18:43.425Z,25.08
2023-01-26T23:21:10.863Z,22.58
2023-01-26T23:23:39.164Z,26.33
2023-01-26T23:26:06.803Z,22.08
2023-01-26T23:28:36.676Z,21.33
2023-01-26T23:31:05.731Z,21.20
2023-01-26T23:33:33.851Z,22.10
2023-01-26T23:36:00.866Z,22.48
2023-01-26T23:38:29.301Z,24.52
2023-01-26T23:40:56.213Z,25.55
2023-01-26T23:43:23.700Z,25.13
2023-01-26T23:45:50.799Z,20.25
2023-01-26T23:48:19.099Z,20.58
2023-01-26T23:50:46.307Z,17.52
2023-01-26T23:53:13.543Z,23.67
2023-01-26T23:55:44.056Z,20.27
2023-01-26T23:58:11.984Z,22.58
